sensor_id;sensor_type;location;lat;lon;timestamp;pressure;altitude;pressure_sealevel;temperature;humidity
7888;BME280;3989;48.810;9.208;2023-05-23T00:01:39;98568.94;;;17.53;nan
7888;BME280;3989;48.810;9.208;2023-05-23T00:04:07;98561.50;;;17.49;nan
7888;BME280;3989;48.810;9.208;2023-05-23T00:06:34;98543.25;;;17.32;nan
7888;BME280;3989;48.810;9.208;2023-05-23T00:09:03;98549.84;;;17.37;nan
7888;BME280;3989;48.810;9.208;2023-05-23T00:11:29;98569.47;;;17.44;nan
7888;BME280;3989;48.810;9.208;2023-05-23T00:13:56;98565.75;;;17.45;nan
7888;BME280;3989;48.810;9.208;2023-05-23T00:16:25;98544.72;;;17.17;nan
7888;BME280;3989;48.810;9.208;2023-05-23T00:18:53;98460.81;;;16.59;nan
7888;BME280;3989;48.810;9.208;2023-05-23T00:21:21;98568.59;;;17.31;nan
7888;BME280;3989;48.810;9.208;2023-05-23T00:23:48;98562.59;;;17.29;nan
7888;BME280;3989;48.810;9.208;2023-05-23T00:26:15;98546.44;;;17.11;nan
7888;BME280;3989;48.810;9.208;2023-05-23T00:28:41;98568.00;;;17.29;nan
7888;BME280;3989;48.810;9.208;2023-05-23T00:31:08;98564.09;;;17.25;nan
7888;BME280;3989;48.810;9.208;2023-05-23T00:33:34;98551.84;;;17.11;nan
7888;BME280;3989;48.810;9.208;2023-05-23T00:36:02;98560.16;;;17.10;nan
7888;BME280;3989;48.810;9.208;2023-05-23T00:38:29;98577.91;;;17.17;nan
7888;BME280;3989;48.810;9.208;2023-05-23T00:40:55;98576.25;;;17.16;nan
7888;BME280;3989;48.810;9.208;2023-05-23T00:43:22;98534.94;;;16.86;nan
7888;BME280;3989;48.810;9.208;2023-05-23T00:45:48;98529.38;;;16.81;nan
7888;BME280;3989;48.810;9.208;2023-05-23T00:48:15;98580.28;;;17.07;nan
7888;BME280;3989;48.810;9.208;2023-05-23T00:50:42;98588.75;;;17.11;nan
7888;BME280;3989;48.810;9.208;2023-05-23T00:53:10;98494.47;;;16.50;nan
7888;BME280;3989;48.810;9.208;2023-05-23T00:55:37;98588.00;;;17.04;nan
7888;BME280;3989;48.810;9.208;2023-05-23T00:58:04;98577.59;;;16.89;nan
7888;BME280;3989;48.810;9.208;2023-05-23T01:00:31;98579.22;;;16.90;nan
7888;BME280;3989;48.810;9.208;2023-05-23T01:02:58;98586.47;;;16.96;nan
7888;BME280;3989;48.810;9.208;2023-05-23T01:05:25;98592.81;;;17.02;nan
7888;BME280;3989;48.810;9.208;2023-05-23T01:07:53;98583.38;;;16.93;nan
7888;BME280;3989;48.810;9.208;2023-05-23T01:10:25;98567.66;;;16.90;nan
7888;BME280;3989;48.810;9.208;2023-05-23T01:13:03;98569.97;;;16.86;nan
7888;BME280;3989;48.810;9.208;2023-05-23T01:15:37;98599.81;;;17.03;nan
7888;BME280;3989;48.810;9.208;2023-05-23T01:18:07;98596.94;;;17.04;nan
7888;BME280;3989;48.810;9.208;2023-05-23T01:20:44;98523.84;;;16.51;nan
7888;BME280;3989;48.810;9.208;2023-05-23T01:23:30;98549.13;;;16.75;nan
7888;BME280;3989;48.810;9.208;2023-05-23T01:26:16;98596.72;;;17.06;nan
7888;BME280;3989;48.810;9.208;2023-05-23T01:28:49;98485.69;;;16.36;nan
7888;BME280;3989;48.810;9.208;2023-05-23T01:31:17;98534.91;;;16.68;nan
7888;BME280;3989;48.810;9.208;2023-05-23T01:33:44;98593.09;;;16.94;nan
7888;BME280;3989;48.810;9.208;2023-05-23T01:36:12;98594.97;;;16.93;nan
7888;BME280;3989;48.810;9.208;2023-05-23T01:38:39;98603.81;;;17.00;nan
7888;BME280;3989;48.810;9.208;2023-05-23T01:41:06;98599.03;;;17.02;nan
7888;BME280;3989;48.810;9.208;2023-05-23T01:43:32;98503.59;;;16.49;nan
7888;BME280;3989;48.810;9.208;2023-05-23T01:46:02;98487.94;;;16.39;nan
7888;BME280;3989;48.810;9.208;2023-05-23T01:48:30;98610.41;;;17.04;nan
7888;BME280;3989;48.810;9.208;2023-05-23T01:50:57;98520.13;;;16.52;nan
7888;BME280;3989;48.810;9.208;2023-05-23T01:53:25;98605.47;;;17.01;nan
7888;BME280;3989;48.810;9.208;2023-05-23T01:55:51;98557.09;;;16.70;nan
7888;BME280;3989;48.810;9.208;2023-05-23T01:58:18;98567.63;;;16.71;nan
7888;BME280;3989;48.810;9.208;2023-05-23T02:00:45;98444.00;;;16.02;nan
7888;BME280;3989;48.810;9.208;2023-05-23T02:03:13;98595.97;;;16.99;nan
7888;BME280;3989;48.810;9.208;2023-05-23T02:05:40;98574.66;;;16.91;nan
7888;BME280;3989;48.810;9.208;2023-05-23T02:08:06;98480.22;;;16.24;nan
7888;BME280;3989;48.810;9.208;2023-05-23T02:10:33;98599.94;;;16.96;nan
7888;BME280;3989;48.810;9.208;2023-05-23T02:13:00;98506.25;;;16.31;nan
7888;BME280;3989;48.810;9.208;2023-05-23T02:15:27;98609.34;;;16.87;nan
7888;BME280;3989;48.810;9.208;2023-05-23T02:17:54;98608.16;;;16.83;nan
7888;BME280;3989;48.810;9.208;2023-05-23T02:20:22;98424.63;;;15.69;nan
7888;BME280;3989;48.810;9.208;2023-05-23T02:22:49;98443.63;;;15.74;nan
7888;BME280;3989;48.810;9.208;2023-05-23T02:25:15;98550.38;;;16.29;nan
7888;BME280;3989;48.810;9.208;2023-05-23T02:27:42;98501.13;;;16.04;nan
7888;BME280;3989;48.810;9.208;2023-05-23T02:30:10;98442.19;;;15.71;nan
7888;BME280;3989;48.810;9.208;2023-05-23T02:32:36;98608.94;;;16.84;nan
7888;BME280;3989;48.810;9.208;2023-05-23T02:35:04;98478.94;;;16.09;nan
7888;BME280;3989;48.810;9.208;2023-05-23T02:37:32;98472.41;;;15.98;nan
7888;BME280;3989;48.810;9.208;2023-05-23T02:39:59;98454.66;;;15.91;nan
7888;BME280;3989;48.810;9.208;2023-05-23T02:42:25;98576.69;;;16.77;nan
7888;BME280;3989;48.810;9.208;2023-05-23T02:44:52;98608.28;;;17.06;nan
7888;BME280;3989;48.810;9.208;2023-05-23T02:47:18;98509.81;;;16.49;nan
7888;BME280;3989;48.810;9.208;2023-05-23T02:49:45;98619.25;;;17.11;nan
7888;BME280;3989;48.810;9.208;2023-05-23T02:52:12;98577.69;;;16.83;nan
7888;BME280;3989;48.810;9.208;2023-05-23T02:54:40;98608.16;;;17.01;nan
7888;BME280;3989;48.810;9.208;2023-05-23T02:57:07;98523.91;;;16.45;nan
7888;BME280;3989;48.810;9.208;2023-05-23T02:59:33;98500.06;;;16.30;nan
7888;BME280;3989;48.810;9.208;2023-05-23T03:02:00;98528.97;;;16.41;nan
7888;BME280;3989;48.810;9.208;2023-05-23T03:04:28;98554.53;;;16.57;nan
7888;BME280;3989;48.810;9.208;2023-05-23T03:06:55;98578.19;;;16.73;nan
7888;BME280;3989;48.810;9.208;2023-05-23T03:09:23;98588.53;;;16.76;nan
7888;BME280;3989;48.810;9.208;2023-05-23T03:11:51;98602.25;;;16.93;nan
7888;BME280;3989;48.810;9.208;2023-05-23T03:14:18;98628.63;;;17.09;nan
7888;BME280;3989;48.810;9.208;2023-05-23T03:16:45;98609.66;;;16.97;nan
7888;BME280;3989;48.810;9.208;2023-05-23T03:19:11;98578.50;;;16.83;nan
7888;BME280;3989;48.810;9.208;2023-05-23T03:21:38;98627.56;;;17.10;nan
7888;BME280;3989;48.810;9.208;2023-05-23T03:24:05;98644.88;;;17.20;nan
7888;BME280;3989;48.810;9.208;2023-05-23T03:26:31;98583.00;;;16.89;nan
7888;BME280;3989;48.810;9.208;2023-05-23T03:28:59;98645.00;;;17.25;nan
7888;BME280;3989;48.810;9.208;2023-05-23T03:31:26;98589.56;;;16.93;nan
7888;BME280;3989;48.810;9.208;2023-05-23T03:33:52;98645.00;;;17.25;nan
7888;BME280;3989;48.810;9.208;2023-05-23T03:36:19;98633.88;;;17.22;nan
7888;BME280;3989;48.810;9.208;2023-05-23T03:38:50;98653.47;;;17.29;nan
7888;BME280;3989;48.810;9.208;2023-05-23T03:41:17;98643.97;;;17.26;nan
7888;BME280;3989;48.810;9.208;2023-05-23T03:43:43;98522.34;;;16.37;nan
7888;BME280;3989;48.810;9.208;2023-05-23T03:46:11;98585.38;;;16.79;nan
7888;BME280;3989;48.810;9.208;2023-05-23T03:48:38;98605.16;;;16.91;nan
7888;BME280;3989;48.810;9.208;2023-05-23T03:51:05;98606.34;;;16.95;nan
7888;BME280;3989;48.810;9.208;2023-05-23T03:53:31;98570.94;;;16.73;nan
7888;BME280;3989;48.810;9.208;2023-05-23T03:55:58;98541.91;;;16.51;nan
7888;BME280;3989;48.810;9.208;2023-05-23T03:58:24;98575.13;;;16.69;nan
7888;BME280;3989;48.810;9.208;2023-05-23T04:00:51;98634.66;;;17.04;nan
7888;BME280;3989;48.810;9.208;2023-05-23T04:03:19;98647.56;;;17.02;nan
7888;BME280;3989;48.810;9.208;2023-05-23T04:05:46;98653.41;;;16.99;nan
7888;BME280;3989;48.810;9.208;2023-05-23T04:08:12;98653.16;;;17.01;nan
7888;BME280;3989;48.810;9.208;2023-05-23T04:10:39;98628.81;;;16.89;nan
7888;BME280;3989;48.810;9.208;2023-05-23T04:13:06;98658.28;;;17.09;nan
7888;BME280;3989;48.810;9.208;2023-05-23T04:15:33;98639.91;;;16.99;nan
7888;BME280;3989;48.810;9.208;2023-05-23T04:18:00;98622.69;;;17.00;nan
7888;BME280;3989;48.810;9.208;2023-05-23T04:20:29;98582.97;;;16.71;nan
7888;BME280;3989;48.810;9.208;2023-05-23T04:22:55;98553.38;;;16.64;nan
7888;BME280;3989;48.810;9.208;2023-05-23T04:25:22;98655.59;;;17.27;nan
7888;BME280;3989;48.810;9.208;2023-05-23T04:27:48;98655.97;;;17.30;nan
7888;BME280;3989;48.810;9.208;2023-05-23T04:30:15;98643.59;;;17.23;nan
7888;BME280;3989;48.810;9.208;2023-05-23T04:32:42;98633.63;;;17.23;nan
7888;BME280;3989;48.810;9.208;2023-05-23T04:35:10;98644.59;;;17.28;nan
7888;BME280;3989;48.810;9.208;2023-05-23T04:37:38;98577.22;;;16.86;nan
7888;BME280;3989;48.810;9.208;2023-05-23T04:40:05;98527.13;;;16.60;nan
7888;BME280;3989;48.810;9.208;2023-05-23T04:42:32;98670.06;;;17.51;nan
7888;BME280;3989;48.810;9.208;2023-05-23T04:44:58;98630.94;;;17.23;nan
7888;BME280;3989;48.810;9.208;2023-05-23T04:47:26;98642.59;;;17.36;nan
7888;BME280;3989;48.810;9.208;2023-05-23T04:49:53;98685.94;;;17.59;nan
7888;BME280;3989;48.810;9.208;2023-05-23T04:52:20;98544.06;;;16.67;nan
7888;BME280;3989;48.810;9.208;2023-05-23T04:54:48;98656.84;;;17.43;nan
7888;BME280;3989;48.810;9.208;2023-05-23T04:57:14;98665.09;;;17.48;nan
7888;BME280;3989;48.810;9.208;2023-05-23T04:59:41;98584.28;;;17.05;nan
7888;BME280;3989;48.810;9.208;2023-05-23T05:02:08;98688.28;;;17.73;nan
7888;BME280;3989;48.810;9.208;2023-05-23T05:04:34;98656.28;;;17.59;nan
7888;BME280;3989;48.810;9.208;2023-05-23T05:07:01;98552.53;;;16.89;nan
7888;BME280;3989;48.810;9.208;2023-05-23T05:09:28;98699.50;;;17.89;nan
7888;BME280;3989;48.810;9.208;2023-05-23T05:11:56;98695.13;;;18.06;nan
7888;BME280;3989;48.810;9.208;2023-05-23T05:14:24;98671.22;;;17.91;nan
7888;BME280;3989;48.810;9.208;2023-05-23T05:16:50;98644.31;;;17.84;nan
7888;BME280;3989;48.810;9.208;2023-05-23T05:19:18;98685.50;;;18.10;nan
7888;BME280;3989;48.810;9.208;2023-05-23T05:21:45;98680.72;;;17.94;nan
7888;BME280;3989;48.810;9.208;2023-05-23T05:24:12;98638.31;;;17.82;nan
7888;BME280;3989;48.810;9.208;2023-05-23T05:26:39;98701.97;;;18.20;nan
7888;BME280;3989;48.810;9.208;2023-05-23T05:29:08;98608.34;;;17.72;nan
7888;BME280;3989;48.810;9.208;2023-05-23T05:31:35;98657.16;;;18.01;nan
7888;BME280;3989;48.810;9.208;2023-05-23T05:34:02;98706.91;;;18.23;nan
7888;BME280;3989;48.810;9.208;2023-05-23T05:36:29;98708.88;;;18.16;nan
7888;BME280;3989;48.810;9.208;2023-05-23T05:38:56;98656.69;;;17.74;nan
7888;BME280;3989;48.810;9.208;2023-05-23T05:41:23;98700.75;;;18.04;nan
7888;BME280;3989;48.810;9.208;2023-05-23T05:43:51;98701.03;;;18.14;nan
7888;BME280;3989;48.810;9.208;2023-05-23T05:46:19;98698.44;;;18.19;nan
7888;BME280;3989;48.810;9.208;2023-05-23T05:48:45;98594.69;;;17.67;nan
7888;BME280;3989;48.810;9.208;2023-05-23T05:51:12;98577.38;;;17.75;nan
7888;BME280;3989;48.810;9.208;2023-05-23T05:53:39;98662.28;;;18.50;nan
7888;BME280;3989;48.810;9.208;2023-05-23T05:56:05;98691.66;;;18.58;nan
7888;BME280;3989;48.810;9.208;2023-05-23T05:58:33;98691.75;;;18.52;nan
7888;BME280;3989;48.810;9.208;2023-05-23T06:01:00;98710.56;;;18.58;nan
7888;BME280;3989;48.810;9.208;2023-05-23T06:03:28;98714.81;;;18.54;nan
7888;BME280;3989;48.810;9.208;2023-05-23T06:05:54;98696.66;;;18.43;nan
7888;BME280;3989;48.810;9.208;2023-05-23T06:08:21;98650.53;;;18.15;nan
7888;BME280;3989;48.810;9.208;2023-05-23T06:10:48;98706.53;;;18.49;nan
7888;BME280;3989;48.810;9.208;2023-05-23T06:13:14;98717.72;;;18.53;nan
7888;BME280;3989;48.810;9.208;2023-05-23T06:15:42;98690.66;;;18.41;nan
7888;BME280;3989;48.810;9.208;2023-05-23T06:18:09;98705.25;;;18.52;nan
7888;BME280;3989;48.810;9.208;2023-05-23T06:20:37;98716.75;;;18.77;nan
7888;BME280;3989;48.810;9.208;2023-05-23T06:23:04;98639.75;;;18.26;nan
7888;BME280;3989;48.810;9.208;2023-05-23T06:25:30;98628.13;;;18.26;nan
7888;BME280;3989;48.810;9.208;2023-05-23T06:27:57;98722.63;;;18.85;nan
7888;BME280;3989;48.810;9.208;2023-05-23T06:30:23;98702.63;;;18.75;nan
7888;BME280;3989;48.810;9.208;2023-05-23T06:32:50;98641.16;;;18.29;nan
7888;BME280;3989;48.810;9.208;2023-05-23T06:35:17;98730.94;;;18.72;nan
7888;BME280;3989;48.810;9.208;2023-05-23T06:37:44;98737.66;;;18.70;nan
7888;BME280;3989;48.810;9.208;2023-05-23T06:40:12;98736.13;;;18.74;nan
7888;BME280;3989;48.810;9.208;2023-05-23T06:42:39;98666.72;;;18.15;nan
7888;BME280;3989;48.810;9.208;2023-05-23T06:45:06;98749.28;;;18.70;nan
7888;BME280;3989;48.810;9.208;2023-05-23T06:47:33;98595.69;;;17.73;nan
7888;BME280;3989;48.810;9.208;2023-05-23T06:50:01;98593.75;;;17.62;nan
7888;BME280;3989;48.810;9.208;2023-05-23T06:52:27;98681.72;;;17.99;nan
7888;BME280;3989;48.810;9.208;2023-05-23T06:54:55;98695.44;;;17.98;nan
7888;BME280;3989;48.810;9.208;2023-05-23T06:57:22;98761.09;;;18.28;nan
7888;BME280;3989;48.810;9.208;2023-05-23T06:59:51;98704.16;;;17.81;nan
7888;BME280;3989;48.810;9.208;2023-05-23T07:02:19;98614.69;;;17.12;nan
7888;BME280;3989;48.810;9.208;2023-05-23T07:04:56;98646.53;;;17.21;nan
7888;BME280;3989;48.810;9.208;2023-05-23T07:07:29;98623.28;;;17.02;nan
7888;BME280;3989;48.810;9.208;2023-05-23T07:12:35;98772.47;;;17.82;nan
7888;BME280;3989;48.810;9.208;2023-05-23T07:15:08;98677.66;;;17.17;nan
7888;BME280;3989;48.810;9.208;2023-05-23T07:17:35;98782.97;;;17.72;nan
7888;BME280;3989;48.810;9.208;2023-05-23T07:20:03;98715.59;;;17.41;nan
7888;BME280;3989;48.810;9.208;2023-05-23T07:22:30;98621.91;;;16.93;nan
7888;BME280;3989;48.810;9.208;2023-05-23T07:24:56;98775.22;;;17.94;nan
7888;BME280;3989;48.810;9.208;2023-05-23T07:27:23;98666.88;;;17.17;nan
7888;BME280;3989;48.810;9.208;2023-05-23T07:29:51;98755.31;;;17.76;nan
7888;BME280;3989;48.810;9.208;2023-05-23T07:32:18;98786.56;;;18.02;nan
7888;BME280;3989;48.810;9.208;2023-05-23T07:34:45;98689.16;;;17.49;nan
7888;BME280;3989;48.810;9.208;2023-05-23T07:37:14;98644.88;;;17.02;nan
7888;BME280;3989;48.810;9.208;2023-05-23T07:39:41;98643.94;;;16.90;nan
7888;BME280;3989;48.810;9.208;2023-05-23T07:42:08;98797.28;;;17.72;nan
7888;BME280;3989;48.810;9.208;2023-05-23T07:44:35;98655.44;;;16.79;nan
7888;BME280;3989;48.810;9.208;2023-05-23T07:47:05;98634.66;;;16.86;nan
7888;BME280;3989;48.810;9.208;2023-05-23T07:49:32;98738.41;;;17.81;nan
7888;BME280;3989;48.810;9.208;2023-05-23T07:52:00;98794.56;;;18.27;nan
7888;BME280;3989;48.810;9.208;2023-05-23T07:54:26;98722.13;;;17.88;nan
7888;BME280;3989;48.810;9.208;2023-05-23T07:56:53;98722.66;;;17.96;nan
7888;BME280;3989;48.810;9.208;2023-05-23T07:59:20;98768.38;;;18.27;nan
7888;BME280;3989;48.810;9.208;2023-05-23T08:01:47;98712.31;;;18.23;nan
7888;BME280;3989;48.810;9.208;2023-05-23T08:04:17;98725.44;;;18.49;nan
7888;BME280;3989;48.810;9.208;2023-05-23T08:06:44;98664.06;;;17.97;nan
7888;BME280;3989;48.810;9.208;2023-05-23T08:09:16;98680.91;;;18.10;nan
7888;BME280;3989;48.810;9.208;2023-05-23T08:11:46;98783.66;;;19.05;nan
7888;BME280;3989;48.810;9.208;2023-05-23T08:14:13;98753.91;;;18.93;nan
7888;BME280;3989;48.810;9.208;2023-05-23T08:16:40;98814.88;;;19.19;nan
7888;BME280;3989;48.810;9.208;2023-05-23T08:19:08;98784.38;;;18.59;nan
7888;BME280;3989;48.810;9.208;2023-05-23T08:21:38;98644.25;;;17.55;nan
7888;BME280;3989;48.810;9.208;2023-05-23T08:24:08;98818.56;;;18.35;nan
7888;BME280;3989;48.810;9.208;2023-05-23T08:26:35;98693.25;;;17.52;nan
7888;BME280;3989;48.810;9.208;2023-05-23T08:29:02;98761.09;;;18.10;nan
7888;BME280;3989;48.810;9.208;2023-05-23T08:31:29;98835.25;;;18.62;nan
7888;BME280;3989;48.810;9.208;2023-05-23T08:33:55;98802.81;;;18.50;nan
7888;BME280;3989;48.810;9.208;2023-05-23T08:36:22;98791.81;;;18.75;nan
7888;BME280;3989;48.810;9.208;2023-05-23T08:38:50;98747.31;;;18.48;nan
7888;BME280;3989;48.810;9.208;2023-05-23T08:41:19;98761.34;;;18.56;nan
7888;BME280;3989;48.810;9.208;2023-05-23T08:43:46;98856.50;;;19.29;nan
7888;BME280;3989;48.810;9.208;2023-05-23T08:46:13;98677.34;;;18.28;nan
7888;BME280;3989;48.810;9.208;2023-05-23T08:48:41;98851.00;;;19.36;nan
7888;BME280;3989;48.810;9.208;2023-05-23T08:51:08;98814.56;;;18.97;nan
7888;BME280;3989;48.810;9.208;2023-05-23T08:53:35;98862.97;;;19.17;nan
7888;BME280;3989;48.810;9.208;2023-05-23T08:56:05;98837.00;;;18.86;nan
7888;BME280;3989;48.810;9.208;2023-05-23T08:58:33;98711.25;;;17.94;nan
7888;BME280;3989;48.810;9.208;2023-05-23T09:01:00;98790.84;;;18.58;nan
7888;BME280;3989;48.810;9.208;2023-05-23T09:03:27;98827.91;;;18.80;nan
7888;BME280;3989;48.810;9.208;2023-05-23T09:05:55;98813.78;;;18.67;nan
7888;BME280;3989;48.810;9.208;2023-05-23T09:08:22;98793.59;;;18.81;nan
7888;BME280;3989;48.810;9.208;2023-05-23T09:10:50;98876.25;;;19.48;nan
7888;BME280;3989;48.810;9.208;2023-05-23T09:13:18;98854.63;;;19.30;nan
7888;BME280;3989;48.810;9.208;2023-05-23T09:15:56;98846.13;;;19.15;nan
7888;BME280;3989;48.810;9.208;2023-05-23T09:18:24;98846.59;;;19.12;nan
7888;BME280;3989;48.810;9.208;2023-05-23T09:20:51;98779.81;;;18.41;nan
7888;BME280;3989;48.810;9.208;2023-05-23T09:23:18;98882.28;;;18.91;nan
7888;BME280;3989;48.810;9.208;2023-05-23T09:25:45;98813.84;;;18.30;nan
7888;BME280;3989;48.810;9.208;2023-05-23T09:28:12;98888.69;;;18.78;nan
7888;BME280;3989;48.810;9.208;2023-05-23T09:30:40;98879.19;;;18.87;nan
7888;BME280;3989;48.810;9.208;2023-05-23T09:33:07;98843.91;;;18.70;nan
7888;BME280;3989;48.810;9.208;2023-05-23T09:35:33;98811.88;;;18.56;nan
7888;BME280;3989;48.810;9.208;2023-05-23T09:38:00;98848.47;;;18.70;nan
7888;BME280;3989;48.810;9.208;2023-05-23T09:40:30;98861.84;;;18.95;nan
7888;BME280;3989;48.810;9.208;2023-05-23T09:43:01;98871.31;;;19.15;nan
7888;BME280;3989;48.810;9.208;2023-05-23T09:45:28;98881.03;;;19.46;nan
7888;BME280;3989;48.810;9.208;2023-05-23T09:47:56;98902.94;;;19.56;nan
7888;BME280;3989;48.810;9.208;2023-05-23T09:50:25;98877.47;;;19.22;nan
7888;BME280;3989;48.810;9.208;2023-05-23T09:52:55;98852.44;;;18.97;nan
7888;BME280;3989;48.810;9.208;2023-05-23T09:55:22;98809.69;;;18.46;nan
7888;BME280;3989;48.810;9.208;2023-05-23T09:57:52;98849.84;;;18.61;nan
7888;BME280;3989;48.810;9.208;2023-05-23T10:00:22;98805.31;;;18.45;nan
7888;BME280;3989;48.810;9.208;2023-05-23T10:03:05;98898.22;;;19.10;nan
7888;BME280;3989;48.810;9.208;2023-05-23T10:05:39;98816.50;;;18.67;nan
7888;BME280;3989;48.810;9.208;2023-05-23T10:08:07;98893.06;;;19.50;nan
7888;BME280;3989;48.810;9.208;2023-05-23T10:11:03;98809.97;;;19.51;nan
7888;BME280;3989;48.810;9.208;2023-05-23T10:13:45;98883.78;;;20.27;nan
7888;BME280;3989;48.810;9.208;2023-05-23T10:16:17;98825.75;;;20.40;nan
7888;BME280;3989;48.810;9.208;2023-05-23T10:18:52;98893.34;;;20.98;nan
7888;BME280;3989;48.810;9.208;2023-05-23T10:21:23;98894.41;;;21.25;nan
7888;BME280;3989;48.810;9.208;2023-05-23T10:23:51;98889.63;;;21.16;nan
7888;BME280;3989;48.810;9.208;2023-05-23T10:26:18;98855.84;;;20.95;nan
7888;BME280;3989;48.810;9.208;2023-05-23T10:28:47;98872.75;;;21.14;nan
7888;BME280;3989;48.810;9.208;2023-05-23T10:31:15;98902.22;;;21.22;nan
7888;BME280;3989;48.810;9.208;2023-05-23T10:33:49;98893.13;;;20.88;nan
7888;BME280;3989;48.810;9.208;2023-05-23T10:36:21;98892.19;;;21.22;nan
7888;BME280;3989;48.810;9.208;2023-05-23T10:38:57;98824.03;;;21.07;nan
7888;BME280;3989;48.810;9.208;2023-05-23T10:41:30;98799.16;;;20.82;nan
7888;BME280;3989;48.810;9.208;2023-05-23T10:44:15;98845.47;;;21.54;nan
7888;BME280;3989;48.810;9.208;2023-05-23T10:46:50;98899.38;;;21.95;nan
7888;BME280;3989;48.810;9.208;2023-05-23T10:49:19;98820.91;;;21.82;nan
7888;BME280;3989;48.810;9.208;2023-05-23T10:51:48;98839.19;;;21.86;nan
7888;BME280;3989;48.810;9.208;2023-05-23T10:54:17;98897.97;;;21.59;nan
7888;BME280;3989;48.810;9.208;2023-05-23T10:56:44;98886.75;;;21.72;nan
7888;BME280;3989;48.810;9.208;2023-05-23T10:59:18;98898.47;;;21.73;nan
7888;BME280;3989;48.810;9.208;2023-05-23T11:01:46;98897.94;;;21.42;nan
7888;BME280;3989;48.810;9.208;2023-05-23T11:04:25;98895.66;;;21.51;nan
7888;BME280;3989;48.810;9.208;2023-05-23T11:06:53;98894.03;;;21.67;nan
7888;BME280;3989;48.810;9.208;2023-05-23T11:09:21;98896.63;;;22.12;nan
7888;BME280;3989;48.810;9.208;2023-05-23T11:11:51;98903.59;;;22.24;nan
7888;BME280;3989;48.810;9.208;2023-05-23T11:14:18;98788.97;;;21.34;nan
7888;BME280;3989;48.810;9.208;2023-05-23T11:16:45;98900.84;;;21.86;nan
7888;BME280;3989;48.810;9.208;2023-05-23T11:19:24;98916.09;;;21.70;nan
7888;BME280;3989;48.810;9.208;2023-05-23T11:21:53;98908.66;;;21.66;nan
7888;BME280;3989;48.810;9.208;2023-05-23T11:24:20;98910.88;;;22.19;nan
7888;BME280;3989;48.810;9.208;2023-05-23T11:26:51;98786.41;;;21.44;nan
7888;BME280;3989;48.810;9.208;2023-05-23T11:29:19;98786.47;;;21.87;nan
7888;BME280;3989;48.810;9.208;2023-05-23T11:31:46;98829.56;;;21.79;nan
7888;BME280;3989;48.810;9.208;2023-05-23T11:34:12;98879.06;;;21.64;nan
7888;BME280;3989;48.810;9.208;2023-05-23T11:36:40;98874.50;;;21.53;nan
7888;BME280;3989;48.810;9.208;2023-05-23T11:39:07;98793.84;;;20.59;nan
7888;BME280;3989;48.810;9.208;2023-05-23T11:41:34;98885.63;;;21.35;nan
7888;BME280;3989;48.810;9.208;2023-05-23T11:44:00;98845.72;;;21.35;nan
7888;BME280;3989;48.810;9.208;2023-05-23T11:46:27;98877.22;;;21.86;nan
7888;BME280;3989;48.810;9.208;2023-05-23T11:48:54;98882.00;;;22.56;nan
7888;BME280;3989;48.810;9.208;2023-05-23T11:51:20;98902.94;;;22.99;nan
7888;BME280;3989;48.810;9.208;2023-05-23T11:53:48;98834.75;;;22.19;nan
7888;BME280;3989;48.810;9.208;2023-05-23T11:56:15;98889.50;;;22.27;nan
7888;BME280;3989;48.810;9.208;2023-05-23T11:58:42;98911.44;;;22.21;nan
7888;BME280;3989;48.810;9.208;2023-05-23T12:01:11;98901.66;;;22.41;nan
7888;BME280;3989;48.810;9.208;2023-05-23T12:03:44;98890.22;;;22.61;nan
7888;BME280;3989;48.810;9.208;2023-05-23T12:06:13;98903.16;;;22.71;nan
7888;BME280;3989;48.810;9.208;2023-05-23T12:08:40;98861.69;;;22.85;nan
7888;BME280;3989;48.810;9.208;2023-05-23T12:11:08;98892.00;;;22.94;nan
7888;BME280;3989;48.810;9.208;2023-05-23T12:13:36;98869.66;;;23.19;nan
7888;BME280;3989;48.810;9.208;2023-05-23T12:16:03;98894.53;;;22.79;nan
7888;BME280;3989;48.810;9.208;2023-05-23T12:18:31;98900.38;;;21.89;nan
7888;BME280;3989;48.810;9.208;2023-05-23T12:20:58;98905.53;;;21.57;nan
7888;BME280;3989;48.810;9.208;2023-05-23T12:23:26;98890.53;;;21.71;nan
7888;BME280;3989;48.810;9.208;2023-05-23T12:25:54;98888.63;;;22.65;nan
7888;BME280;3989;48.810;9.208;2023-05-23T12:28:34;98804.13;;;22.72;nan
7888;BME280;3989;48.810;9.208;2023-05-23T12:31:08;98860.19;;;23.26;nan
7888;BME280;3989;48.810;9.208;2023-05-23T12:33:37;98880.06;;;23.27;nan
7888;BME280;3989;48.810;9.208;2023-05-23T12:36:04;98891.97;;;23.42;nan
7888;BME280;3989;48.810;9.208;2023-05-23T12:38:31;98858.03;;;22.53;nan
7888;BME280;3989;48.810;9.208;2023-05-23T12:41:10;98880.03;;;23.22;nan
7888;BME280;3989;48.810;9.208;2023-05-23T12:43:48;98867.47;;;23.21;nan
7888;BME280;3989;48.810;9.208;2023-05-23T12:46:15;98880.56;;;22.48;nan
7888;BME280;3989;48.810;9.208;2023-05-23T12:48:42;98865.03;;;22.92;nan
7888;BME280;3989;48.810;9.208;2023-05-23T12:51:08;98874.34;;;22.96;nan
7888;BME280;3989;48.810;9.208;2023-05-23T12:53:35;98812.25;;;22.45;nan
7888;BME280;3989;48.810;9.208;2023-05-23T12:56:02;98868.72;;;22.81;nan
7888;BME280;3989;48.810;9.208;2023-05-23T12:58:29;98874.75;;;22.62;nan
7888;BME280;3989;48.810;9.208;2023-05-23T13:00:57;98871.69;;;22.58;nan
7888;BME280;3989;48.810;9.208;2023-05-23T13:03:24;98866.69;;;22.93;nan
7888;BME280;3989;48.810;9.208;2023-05-23T13:05:50;98860.84;;;23.07;nan
7888;BME280;3989;48.810;9.208;2023-05-23T13:08:18;98863.56;;;23.07;nan
7888;BME280;3989;48.810;9.208;2023-05-23T13:10:45;98752.44;;;22.45;nan
7888;BME280;3989;48.810;9.208;2023-05-23T13:13:11;98856.81;;;23.14;nan
7888;BME280;3989;48.810;9.208;2023-05-23T13:15:38;98850.81;;;23.12;nan
7888;BME280;3989;48.810;9.208;2023-05-23T13:18:06;98859.03;;;22.90;nan
7888;BME280;3989;48.810;9.208;2023-05-23T13:20:32;98857.00;;;22.59;nan
7888;BME280;3989;48.810;9.208;2023-05-23T13:22:59;98863.50;;;22.15;nan
7888;BME280;3989;48.810;9.208;2023-05-23T13:25:26;98783.28;;;21.35;nan
7888;BME280;3989;48.810;9.208;2023-05-23T13:27:53;98822.09;;;21.36;nan
7888;BME280;3989;48.810;9.208;2023-05-23T13:30:23;98831.41;;;20.95;nan
7888;BME280;3989;48.810;9.208;2023-05-23T13:32:49;98853.53;;;20.87;nan
7888;BME280;3989;48.810;9.208;2023-05-23T13:35:18;98853.19;;;20.83;nan
7888;BME280;3989;48.810;9.208;2023-05-23T13:37:45;98860.13;;;21.19;nan
7888;BME280;3989;48.810;9.208;2023-05-23T13:40:15;98841.63;;;21.05;nan
7888;BME280;3989;48.810;9.208;2023-05-23T13:42:43;98872.44;;;21.27;nan
7888;BME280;3989;48.810;9.208;2023-05-23T13:45:10;98851.47;;;21.39;nan
7888;BME280;3989;48.810;9.208;2023-05-23T13:47:37;98826.56;;;21.25;nan
7888;BME280;3989;48.810;9.208;2023-05-23T13:50:05;98879.34;;;21.84;nan
7888;BME280;3989;48.810;9.208;2023-05-23T13:52:34;98853.00;;;22.02;nan